createdAt,value
2023-05-16T00:01:52.425Z,16.40
2023-05-16T00:04:21.578Z,18.40
2023-05-16T00:06:49.838Z,17.70
2023-05-16T00:09:20.594Z,16.50
2023-05-16T00:11:48.712Z,17.10
2023-05-16T00:14:17.233Z,16.40
2023-05-16T00:16:45.812Z,18.60
2023-05-16T00:19:17.195Z,18.00
2023-05-16T00:21:45.086Z,17.50
2023-05-16T00:24:12.858Z,15.20
2023-05-16T00:26:40.782Z,17.40
2023-05-16T00:29:09.262Z,17.40
2023-05-16T00:31:37.670Z,16.80
2023-05-16T00:34:08.716Z,17.70
2023-05-16T00:36:36.594Z,16.50
2023-05-16T00:39:04.434Z,16.50
2023-05-16T00:41:34.451Z,17.50
2023-05-16T00:44:02.427Z,16.40
2023-05-16T00:46:30.841Z,17.90
2023-05-16T00:48:59.143Z,18.30
2023-05-16T00:51:27.007Z,17.50
2023-05-16T00:53:56.983Z,16.10
2023-05-16T00:56:25.169Z,17.10
2023-05-16T00:58:52.950Z,17.90
2023-05-16T01:01:25.600Z,16.60
2023-05-16T01:03:53.956Z,16.50
2023-05-16T01:06:22.078Z,17.70
2023-05-16T01:08:51.152Z,15.40
2023-05-16T01:11:33.453Z,16.00
2023-05-16T01:14:24.469Z,15.50
2023-05-16T01:16:58.367Z,15.00
2023-05-16T01:19:33.273Z,15.60
2023-05-16T01:22:17.319Z,18.20
2023-05-16T01:25:10.654Z,14.60
2023-05-16T01:27:39.292Z,15.00
2023-05-16T01:30:16.961Z,17.30
2023-05-16T01:32:46.041Z,18.00
2023-05-16T01:35:17.590Z,17.60
2023-05-16T01:37:52.906Z,17.30
2023-05-16T01:40:35.338Z,15.80
2023-05-16T01:43:09.465Z,16.00
2023-05-16T01:48:25.899Z,14.20
2023-05-16T01:50:57.637Z,15.40
2023-05-16T01:53:34.212Z,18.80
2023-05-16T01:56:02.915Z,15.90
2023-05-16T01:58:35.168Z,14.90
2023-05-16T02:01:05.773Z,16.30
2023-05-16T02:03:35.126Z,15.60
2023-05-16T02:06:03.063Z,18.50
2023-05-16T02:08:31.784Z,15.10
2023-05-16T02:10:59.779Z,15.80
2023-05-16T02:13:27.956Z,16.90
2023-05-16T02:15:55.764Z,14.20
2023-05-16T02:18:23.820Z,14.90
2023-05-16T02:20:52.039Z,16.10
2023-05-16T02:23:19.818Z,14.20
2023-05-16T02:25:47.560Z,20.30
2023-05-16T02:28:15.759Z,12.60
2023-05-16T02:30:43.555Z,15.70
2023-05-16T02:33:11.891Z,13.80
2023-05-16T02:35:39.714Z,13.30
2023-05-16T02:38:07.647Z,13.70
2023-05-16T02:40:35.632Z,13.40
2023-05-16T02:43:03.988Z,13.40
2023-05-16T02:45:32.028Z,13.80
2023-05-16T02:47:59.898Z,16.00
2023-05-16T02:50:27.696Z,14.60
2023-05-16T02:52:55.559Z,14.30
2023-05-16T02:55:23.317Z,14.70
2023-05-16T02:57:52.518Z,14.40
2023-05-16T03:00:21.311Z,15.40
2023-05-16T03:02:49.424Z,15.50
2023-05-16T03:05:17.572Z,17.50
2023-05-16T03:07:45.454Z,17.00
2023-05-16T03:10:13.257Z,15.90
2023-05-16T03:12:40.985Z,16.60
2023-05-16T03:15:09.415Z,17.50
2023-05-16T03:17:37.183Z,16.30
2023-05-16T03:20:09.125Z,17.90
2023-05-16T03:22:37.444Z,16.60
2023-05-16T03:25:05.856Z,18.70
2023-05-16T03:27:33.636Z,16.50
2023-05-16T03:30:01.347Z,17.20
2023-05-16T03:32:29.110Z,18.90
2023-05-16T03:34:56.997Z,19.50
2023-05-16T03:37:26.086Z,17.20
2023-05-16T03:39:55.943Z,17.00
2023-05-16T03:42:32.381Z,15.70
2023-05-16T03:45:01.673Z,15.30
2023-05-16T03:47:31.437Z,15.60
2023-05-16T03:49:59.208Z,14.70
2023-05-16T03:52:27.164Z,13.40
2023-05-16T03:54:54.976Z,13.50
2023-05-16T03:57:22.994Z,14.30
2023-05-16T03:59:50.785Z,12.60
2023-05-16T04:02:18.968Z,12.10
2023-05-16T04:04:47.473Z,12.60
2023-05-16T04:07:15.744Z,12.00
2023-05-16T04:09:58.921Z,10.50
2023-05-16T04:12:27.214Z,11.50
2023-05-16T04:14:57.671Z,11.40
2023-05-16T04:17:28.183Z,9.50
2023-05-16T04:19:56.566Z,12.10
2023-05-16T04:22:24.534Z,13.30
2023-05-16T04:24:52.320Z,9.40
2023-05-16T04:27:23.298Z,14.10
2023-05-16T04:33:17.009Z,11.00
2023-05-16T04:35:48.722Z,9.50
2023-05-16T04:38:17.003Z,11.20
2023-05-16T04:40:44.967Z,9.80
2023-05-16T04:43:13.209Z,8.30
2023-05-16T04:45:42.899Z,8.10
2023-05-16T04:48:12.021Z,7.40
2023-05-16T04:50:39.756Z,9.30
2023-05-16T04:53:07.568Z,10.10
2023-05-16T04:55:35.455Z,10.80
2023-05-16T04:58:03.799Z,7.40
2023-05-16T05:00:32.173Z,7.60
2023-05-16T05:03:00.480Z,8.80
2023-05-16T05:05:28.456Z,7.50
2023-05-16T05:07:58.515Z,8.60
2023-05-16T05:10:32.070Z,8.70
2023-05-16T05:13:00.434Z,9.50
2023-05-16T05:15:28.344Z,7.30
2023-05-16T05:17:56.387Z,6.90
2023-05-16T05:20:24.817Z,7.20
2023-05-16T05:22:57.398Z,6.40
2023-05-16T05:25:26.029Z,5.90
2023-05-16T05:27:54.325Z,7.60
2023-05-16T05:30:22.102Z,11.00
2023-05-16T05:32:50.095Z,7.00
2023-05-16T05:35:18.156Z,8.50
2023-05-16T05:37:46.428Z,5.60
2023-05-16T05:40:14.658Z,7.40
2023-05-16T05:42:45.398Z,7.00
2023-05-16T05:45:16.319Z,6.20
2023-05-16T05:47:44.368Z,7.70
2023-05-16T05:50:13.120Z,5.80
2023-05-16T05:52:40.988Z,7.50
2023-05-16T05:55:09.410Z,6.20
2023-05-16T05:57:37.836Z,9.70
2023-05-16T06:00:07.957Z,7.30
2023-05-16T06:02:36.168Z,5.90
2023-05-16T06:05:04.667Z,4.80
2023-05-16T06:07:32.492Z,5.70
2023-05-16T06:10:05.290Z,7.20
2023-05-16T06:12:33.889Z,4.50
2023-05-16T06:15:04.645Z,5.80
2023-05-16T06:17:32.618Z,5.80
2023-05-16T06:20:00.432Z,8.00
2023-05-16T06:22:28.776Z,7.10
2023-05-16T06:24:57.689Z,8.00
2023-05-16T06:27:25.728Z,7.80
2023-05-16T06:29:53.639Z,7.40
2023-05-16T06:32:24.623Z,9.50
2023-05-16T06:34:52.950Z,10.90
2023-05-16T06:37:26.615Z,8.20
2023-05-16T06:40:00.542Z,7.50
2023-05-16T06:42:28.377Z,8.20
2023-05-16T06:44:56.183Z,6.00
2023-05-16T06:47:24.429Z,6.60
2023-05-16T06:49:53.498Z,8.30
2023-05-16T06:52:25.655Z,7.50
2023-05-16T06:54:53.721Z,9.30
2023-05-16T06:57:21.653Z,5.40
2023-05-16T06:59:49.472Z,8.60
2023-05-16T07:02:17.793Z,5.90
2023-05-16T07:04:46.724Z,5.60
2023-05-16T07:07:15.366Z,7.40
2023-05-16T07:09:43.689Z,6.70
2023-05-16T07:12:11.674Z,5.60
2023-05-16T07:14:41.145Z,7.20
2023-05-16T07:17:09.581Z,5.00
2023-05-16T07:19:37.887Z,6.60
2023-05-16T07:22:05.789Z,6.10
2023-05-16T07:24:33.595Z,7.20
2023-05-16T07:27:01.388Z,4.90
2023-05-16T07:29:30.522Z,8.30
2023-05-16T07:31:59.591Z,4.90
2023-05-16T07:34:28.053Z,8.30
2023-05-16T07:36:55.849Z,5.70
2023-05-16T07:39:23.629Z,5.30
2023-05-16T07:41:51.557Z,5.50
2023-05-16T07:44:19.483Z,4.90
2023-05-16T07:46:47.690Z,4.60
2023-05-16T07:49:16.333Z,4.90
2023-05-16T07:51:44.391Z,4.20
2023-05-16T07:54:12.130Z,5.90
2023-05-16T07:56:39.990Z,7.60
2023-05-16T07:59:08.078Z,7.40
2023-05-16T08:01:37.567Z,5.90
2023-05-16T08:04:05.967Z,4.60
2023-05-16T08:06:34.798Z,5.50
2023-05-16T08:09:02.777Z,8.90
2023-05-16T08:11:30.694Z,6.30
2023-05-16T08:13:58.519Z,5.30
2023-05-16T08:16:26.833Z,5.90
2023-05-16T08:18:55.635Z,7.20
2023-05-16T08:21:23.696Z,4.20
2023-05-16T08:23:51.856Z,4.10
2023-05-16T08:26:19.605Z,5.00
2023-05-16T08:28:48.027Z,5.30
2023-05-16T08:31:16.716Z,6.20
2023-05-16T08:33:45.231Z,4.40
2023-05-16T08:36:13.239Z,5.70
2023-05-16T08:38:41.144Z,5.20
2023-05-16T08:41:08.899Z,6.40
2023-05-16T08:43:36.900Z,5.90
2023-05-16T08:46:08.355Z,4.70
2023-05-16T08:48:37.411Z,6.40
2023-05-16T08:51:08.219Z,6.10
2023-05-16T08:53:43.284Z,5.20
2023-05-16T08:56:14.274Z,10.10
2023-05-16T08:58:42.204Z,5.30
2023-05-16T09:01:10.843Z,6.80
2023-05-16T09:03:39.670Z,5.90
2023-05-16T09:06:08.454Z,4.40
2023-05-16T09:08:36.930Z,10.10
2023-05-16T09:11:05.524Z,5.60
2023-05-16T09:13:33.389Z,6.00
2023-05-16T09:16:19.058Z,4.40
2023-05-16T09:18:55.574Z,4.90
2023-05-16T09:21:35.276Z,5.40
2023-05-16T09:24:08.201Z,4.10
2023-05-16T09:26:38.543Z,6.60
2023-05-16T09:29:14.190Z,4.80
2023-05-16T09:31:42.932Z,3.70
2023-05-16T09:34:12.932Z,4.00
2023-05-16T09:36:42.890Z,2.90
2023-05-16T09:39:15.724Z,4.10
2023-05-16T09:41:44.009Z,3.40
2023-05-16T09:44:13.082Z,5.30
2023-05-16T09:46:41.420Z,6.40
2023-05-16T09:49:13.056Z,5.10
2023-05-16T09:51:41.608Z,7.10
2023-05-16T09:54:10.088Z,8.80
2023-05-16T09:56:52.290Z,6.80
2023-05-16T09:59:20.119Z,5.10
2023-05-16T10:01:49.226Z,3.40
2023-05-16T10:04:17.290Z,3.40
2023-05-16T10:06:46.371Z,3.60
2023-05-16T10:09:17.089Z,4.80
2023-05-16T10:11:45.271Z,5.80
2023-05-16T10:14:17.912Z,4.10
2023-05-16T10:16:48.945Z,18.70
2023-05-16T10:19:21.824Z,10.90
2023-05-16T10:21:55.436Z,6.10
2023-05-16T10:24:29.717Z,6.70
2023-05-16T10:26:57.933Z,7.50
2023-05-16T10:29:27.014Z,5.90
2023-05-16T10:31:55.388Z,4.60
2023-05-16T10:34:23.509Z,12.20
2023-05-16T10:36:52.451Z,7.90
2023-05-16T10:39:21.445Z,6.30
2023-05-16T10:41:49.559Z,6.20
2023-05-16T10:44:17.855Z,6.40
2023-05-16T10:46:48.339Z,4.40
2023-05-16T10:49:21.346Z,5.10
2023-05-16T10:52:07.616Z,5.90
2023-05-16T10:54:37.432Z,5.20
2023-05-16T10:57:26.186Z,4.70
2023-05-16T10:59:57.268Z,19.70
2023-05-16T11:02:29.578Z,9.60
2023-05-16T11:04:59.858Z,10.00
2023-05-16T11:07:34.713Z,3.30
2023-05-16T11:10:05.918Z,5.10
2023-05-16T11:12:52.609Z,6.30
2023-05-16T11:15:32.448Z,6.70
2023-05-16T11:18:50.486Z,4.80
2023-05-16T11:21:18.348Z,6.20
2023-05-16T11:24:26.155Z,5.10
2023-05-16T11:26:53.951Z,7.30
2023-05-16T11:29:22.455Z,6.50
2023-05-16T11:31:51.982Z,5.90
2023-05-16T11:34:19.970Z,7.00
2023-05-16T11:36:48.294Z,6.50
2023-05-16T11:39:16.647Z,3.80
2023-05-16T11:41:44.593Z,4.30
2023-05-16T11:44:13.025Z,6.20
2023-05-16T11:46:41.642Z,5.70
2023-05-16T11:49:10.371Z,6.40
2023-05-16T11:51:43.381Z,6.00
2023-05-16T11:54:13.056Z,8.00
2023-05-16T11:56:42.893Z,7.90
2023-05-16T11:59:11.682Z,6.40
2023-05-16T12:01:40.590Z,5.70
2023-05-16T12:04:13.150Z,5.20
2023-05-16T12:06:47.786Z,5.70
2023-05-16T12:09:18.396Z,5.60
2023-05-16T12:11:46.407Z,7.00
2023-05-16T12:14:14.628Z,7.10
2023-05-16T12:16:44.056Z,4.90
2023-05-16T12:19:14.234Z,6.90
2023-05-16T12:21:42.749Z,4.60
2023-05-16T12:24:12.997Z,5.40
2023-05-16T12:26:43.649Z,7.10
2023-05-16T12:29:11.696Z,5.70
2023-05-16T12:31:41.732Z,4.80
2023-05-16T12:34:20.634Z,6.20
2023-05-16T12:36:53.903Z,5.50
2023-05-16T12:39:25.737Z,10.80
2023-05-16T12:41:53.501Z,6.50
2023-05-16T12:44:23.724Z,6.90
2023-05-16T12:46:55.244Z,20.60
2023-05-16T12:49:23.356Z,16.40
2023-05-16T12:51:57.430Z,33.30
2023-05-16T12:54:25.592Z,16.10
2023-05-16T12:56:53.538Z,9.80
2023-05-16T12:59:22.240Z,8.60
2023-05-16T13:01:51.042Z,9.20
2023-05-16T13:04:20.544Z,5.20
2023-05-16T13:06:59.153Z,6.30
2023-05-16T13:09:31.439Z,7.30
2023-05-16T13:12:01.519Z,8.90
2023-05-16T13:14:29.382Z,6.40
2023-05-16T13:16:57.179Z,7.30
2023-05-16T13:19:25.134Z,9.30
2023-05-16T13:21:53.111Z,8.40
2023-05-16T13:24:21.302Z,6.60
2023-05-16T13:26:49.591Z,6.50
2023-05-16T13:29:17.385Z,6.10
2023-05-16T13:31:45.258Z,6.60
2023-05-16T13:34:13.098Z,6.50
2023-05-16T13:36:53.247Z,9.50
2023-05-16T13:39:23.138Z,5.90
2023-05-16T13:41:52.260Z,9.30
2023-05-16T13:44:20.102Z,6.50
2023-05-16T13:46:48.623Z,4.80
2023-05-16T13:49:16.455Z,6.90
2023-05-16T13:51:45.045Z,6.70
2023-05-16T13:54:12.994Z,5.40
2023-05-16T13:56:46.256Z,7.50
2023-05-16T14:02:17.132Z,4.80
2023-05-16T14:04:46.812Z,6.50
2023-05-16T14:07:16.815Z,7.50
2023-05-16T14:09:45.423Z,10.00
2023-05-16T14:12:13.297Z,6.10
2023-05-16T14:14:41.581Z,6.40
2023-05-16T14:17:10.064Z,6.10
2023-05-16T14:19:37.932Z,7.80
2023-05-16T14:22:06.307Z,6.10
2023-05-16T14:24:34.389Z,6.20
2023-05-16T14:27:03.317Z,8.50
2023-05-16T14:29:31.240Z,10.70
2023-05-16T14:31:59.778Z,6.30
2023-05-16T14:34:27.733Z,6.60
2023-05-16T14:36:56.143Z,7.20
2023-05-16T14:39:24.041Z,8.40
2023-05-16T14:41:51.994Z,6.60
2023-05-16T14:44:21.915Z,7.50
2023-05-16T14:46:51.804Z,10.00
2023-05-16T14:49:19.639Z,10.50
2023-05-16T14:51:50.512Z,6.10
2023-05-16T14:54:19.204Z,9.30
2023-05-16T14:56:47.082Z,8.40
2023-05-16T14:59:15.282Z,7.60
2023-05-16T15:01:43.652Z,7.70
2023-05-16T15:04:12.122Z,12.20
2023-05-16T15:06:39.953Z,12.00
2023-05-16T15:09:07.820Z,8.80
2023-05-16T15:11:36.266Z,9.80
2023-05-16T15:14:04.230Z,8.60
2023-05-16T15:16:32.674Z,7.30
2023-05-16T15:19:01.183Z,13.80
2023-05-16T15:21:29.222Z,8.50
2023-05-16T15:23:57.119Z,8.90
2023-05-16T15:26:25.028Z,9.20
2023-05-16T15:28:55.647Z,10.70
2023-05-16T15:31:23.977Z,10.60
2023-05-16T15:33:52.084Z,10.90
2023-05-16T15:36:20.796Z,10.80
2023-05-16T15:38:48.671Z,9.50
2023-05-16T15:41:36.813Z,12.70
2023-05-16T15:44:05.144Z,11.00
2023-05-16T15:46:33.749Z,8.50
2023-05-16T15:49:02.267Z,11.30
2023-05-16T15:51:30.063Z,12.60
2023-05-16T15:53:58.068Z,14.00
2023-05-16T15:56:25.961Z,12.00
2023-05-16T15:58:56.196Z,14.80
2023-05-16T16:01:24.255Z,10.70
2023-05-16T16:03:52.832Z,12.50
2023-05-16T16:06:21.658Z,12.00
2023-05-16T16:08:49.764Z,14.50
2023-05-16T16:11:20.107Z,14.10
2023-05-16T16:13:48.530Z,15.20
2023-05-16T16:16:17.394Z,14.80
2023-05-16T16:18:45.440Z,13.30
2023-05-16T16:21:13.433Z,14.80
2023-05-16T16:23:42.249Z,14.80
2023-05-16T16:26:10.058Z,13.30
2023-05-16T16:28:38.536Z,16.50
2023-05-16T16:31:25.914Z,14.80
2023-05-16T16:33:54.873Z,16.40
2023-05-16T16:36:22.810Z,15.00
2023-05-16T16:38:51.560Z,17.30
2023-05-16T16:41:20.011Z,15.40
2023-05-16T16:43:48.179Z,15.90
2023-05-16T16:46:16.306Z,16.70
2023-05-16T16:48:44.406Z,16.60
2023-05-16T16:51:12.979Z,16.30
2023-05-16T16:54:00.200Z,18.20
2023-05-16T16:56:29.569Z,21.90
2023-05-16T16:58:57.642Z,18.50
2023-05-16T17:01:27.166Z,17.20
2023-05-16T17:03:58.566Z,13.50
2023-05-16T17:06:26.721Z,14.40
2023-05-16T17:08:54.732Z,14.80
2023-05-16T17:11:23.613Z,14.70
2023-05-16T17:13:52.033Z,15.40
2023-05-16T17:16:20.348Z,16.00
2023-05-16T17:18:48.841Z,18.00
2023-05-16T17:21:23.053Z,21.30
2023-05-16T17:23:51.309Z,22.50
2023-05-16T17:26:19.417Z,21.50
2023-05-16T17:28:47.267Z,25.10
2023-05-16T17:31:16.024Z,27.80
2023-05-16T17:33:44.568Z,25.00
2023-05-16T17:36:15.406Z,24.40
2023-05-16T17:38:43.233Z,21.90
2023-05-16T17:41:11.129Z,23.80
2023-05-16T17:43:39.998Z,21.40
2023-05-16T17:46:08.569Z,22.70
2023-05-16T17:48:36.435Z,21.90
2023-05-16T17:51:04.728Z,21.60
2023-05-16T17:53:32.818Z,22.30
2023-05-16T17:56:00.728Z,20.50
2023-05-16T17:59:05.170Z,21.90
2023-05-16T18:01:40.271Z,21.60
2023-05-16T18:04:08.954Z,17.50
2023-05-16T18:06:38.261Z,18.70
2023-05-16T18:09:09.889Z,17.90
2023-05-16T18:11:40.756Z,17.00
2023-05-16T18:14:09.546Z,20.40
2023-05-16T18:16:37.500Z,18.50
2023-05-16T18:19:05.698Z,19.10
2023-05-16T18:21:33.905Z,17.20
2023-05-16T18:24:02.128Z,19.40
2023-05-16T18:26:30.752Z,18.80
2023-05-16T18:28:59.400Z,18.70
2023-05-16T18:31:27.605Z,17.20
2023-05-16T18:33:55.778Z,16.90
2023-05-16T18:36:23.588Z,16.40
2023-05-16T18:38:51.609Z,19.10
2023-05-16T18:41:20.026Z,16.30
2023-05-16T18:43:48.458Z,17.40
2023-05-16T18:46:16.360Z,19.80
2023-05-16T18:48:44.259Z,18.70
2023-05-16T18:51:12.226Z,16.70
2023-05-16T18:53:40.121Z,19.00
2023-05-16T18:56:08.481Z,16.70
2023-05-16T18:58:36.919Z,17.60
2023-05-16T19:01:04.827Z,18.10
2023-05-16T19:03:33.057Z,18.00
2023-05-16T19:06:01.329Z,18.10
2023-05-16T19:08:40.400Z,16.20
2023-05-16T19:11:17.811Z,18.60
2023-05-16T19:13:47.231Z,25.60
2023-05-16T19:16:15.332Z,18.40
2023-05-16T19:18:43.440Z,16.50
2023-05-16T19:21:13.649Z,20.90
2023-05-16T19:23:41.747Z,16.90
2023-05-16T19:26:09.614Z,21.40
2023-05-16T19:28:38.019Z,19.20
2023-05-16T19:31:06.941Z,19.50
2023-05-16T19:33:34.818Z,20.50
2023-05-16T19:36:05.997Z,18.90
2023-05-16T19:38:33.842Z,18.90
2023-05-16T19:41:01.847Z,19.90
2023-05-16T19:43:30.995Z,19.50
2023-05-16T19:45:59.262Z,21.70
2023-05-16T19:48:28.153Z,20.00
2023-05-16T19:50:56.208Z,20.50
2023-05-16T19:53:24.135Z,20.10
2023-05-16T19:55:52.014Z,20.40
2023-05-16T19:58:20.435Z,18.40
2023-05-16T20:00:51.361Z,20.40
2023-05-16T20:03:19.467Z,19.00
2023-05-16T20:05:47.401Z,18.60
2023-05-16T20:08:15.319Z,21.40
2023-05-16T20:10:43.556Z,17.90
2023-05-16T20:13:12.028Z,18.70
2023-05-16T20:15:40.578Z,18.90
2023-05-16T20:18:08.566Z,20.90
2023-05-16T20:20:36.619Z,21.30
2023-05-16T20:23:04.658Z,22.30
2023-05-16T20:25:32.656Z,23.30
2023-05-16T20:28:01.868Z,21.00
2023-05-16T20:30:32.371Z,22.40
2023-05-16T20:33:00.316Z,22.60
2023-05-16T20:35:28.950Z,21.10
2023-05-16T20:37:56.938Z,22.20
2023-05-16T20:40:24.868Z,21.20
2023-05-16T20:42:53.133Z,21.00
2023-05-16T20:45:22.315Z,21.60
2023-05-16T20:47:51.410Z,21.40
2023-05-16T20:50:19.609Z,22.10
2023-05-16T20:52:47.442Z,21.40
2023-05-16T20:55:15.824Z,22.10
2023-05-16T20:57:44.184Z,21.20
2023-05-16T21:00:12.774Z,21.10
2023-05-16T21:02:40.693Z,23.00
2023-05-16T21:05:22.925Z,23.10
2023-05-16T21:07:56.979Z,21.70
2023-05-16T21:10:25.627Z,22.90
2023-05-16T21:12:53.523Z,21.10
2023-05-16T21:15:23.209Z,20.10
2023-05-16T21:17:51.668Z,23.80
2023-05-16T21:20:20.144Z,22.10
2023-05-16T21:22:48.690Z,23.90
2023-05-16T21:25:16.934Z,21.70
2023-05-16T21:27:44.987Z,21.60
2023-05-16T21:30:13.540Z,21.00
2023-05-16T21:32:41.882Z,21.90
2023-05-16T21:35:10.360Z,24.00
2023-05-16T21:37:38.177Z,23.10
2023-05-16T21:40:09.340Z,22.60
2023-05-16T21:42:37.424Z,22.70
2023-05-16T21:45:05.988Z,21.50
2023-05-16T21:47:34.494Z,22.40
2023-05-16T21:50:03.104Z,23.50
2023-05-16T21:52:30.939Z,21.60
2023-05-16T21:54:58.788Z,22.90
2023-05-16T21:57:27.337Z,22.90
2023-05-16T21:59:55.913Z,25.20
2023-05-16T22:02:24.128Z,21.60
2023-05-16T22:04:58.682Z,23.20
2023-05-16T22:07:29.343Z,21.70
2023-05-16T22:09:58.384Z,21.20
2023-05-16T22:12:27.603Z,22.50
2023-05-16T22:14:55.688Z,19.90
2023-05-16T22:17:23.641Z,21.80
2023-05-16T22:19:51.564Z,20.90
2023-05-16T22:22:20.205Z,21.60
2023-05-16T22:24:48.788Z,20.90
2023-05-16T22:27:16.614Z,21.50
2023-05-16T22:29:44.431Z,20.50
2023-05-16T22:32:12.457Z,19.60
2023-05-16T22:34:40.322Z,20.20
2023-05-16T22:37:11.178Z,20.60
2023-05-16T22:39:39.432Z,19.50
2023-05-16T22:42:07.395Z,21.90
2023-05-16T22:44:35.210Z,21.60
2023-05-16T22:47:06.315Z,21.70
2023-05-16T22:49:34.326Z,23.00
2023-05-16T22:52:02.148Z,21.40
2023-05-16T22:54:49.250Z,22.00
2023-05-16T22:57:17.259Z,23.10
2023-05-16T22:59:45.061Z,20.80
2023-05-16T23:02:13.361Z,23.20
2023-05-16T23:04:41.767Z,21.90
2023-05-16T23:07:09.695Z,22.50
2023-05-16T23:09:37.637Z,20.90
2023-05-16T23:12:06.037Z,20.80
2023-05-16T23:14:33.896Z,20.00
2023-05-16T23:17:02.190Z,22.60
2023-05-16T23:19:30.715Z,22.70
2023-05-16T23:21:58.698Z,21.40
2023-05-16T23:24:26.540Z,22.40
2023-05-16T23:26:54.389Z,20.60
2023-05-16T23:29:22.186Z,20.90
2023-05-16T23:31:50.698Z,19.60
2023-05-16T23:34:19.185Z,19.10
2023-05-16T23:36:46.964Z,21.40
2023-05-16T23:42:18.122Z,21.20
2023-05-16T23:44:46.452Z,21.50
2023-05-16T23:47:14.799Z,20.80
2023-05-16T23:49:42.644Z,23.00
2023-05-16T23:52:10.627Z,20.90
2023-05-16T23:54:56.978Z,19.30
2023-05-16T23:57:25.548Z,20.60
2023-05-16T23:59:53.484Z,21.20
